Time;durP1;ratioP1;P1;durP2;ratioP2;P2;SDS_P1;SDS_P2;PMS_P1;PMS_P2;Temp;Humidity;BMP_temperature;BMP_pressure;BME280_temperature;BME280_humidity;BME280_pressure;Samples;Min_cycle;Max_cycle;Signal;HPM_P1;HPM_P2
2022/10/24 00:02:18;;;;;;;22.50;20.10;;;12.40;99.90;;;;;;5112035;28;20523;-70
2022/10/24 00:04:45;;;;;;;23.43;19.53;;;12.40;99.90;;;;;;5109827;28;20212;-71
2022/10/24 00:07:12;;;;;;;25.40;21.30;;;12.40;99.90;;;;;;5110928;28;20231;-69
2022/10/24 00:09:39;;;;;;;26.93;19.23;;;12.40;99.90;;;;;;5110630;28;20200;-70
2022/10/24 00:12:07;;;;;;;25.47;19.83;;;12.50;99.90;;;;;;5109996;28;20215;-70
2022/10/24 00:14:35;;;;;;;24.30;19.47;;;12.50;99.90;;;;;;5108868;28;20204;-71
2022/10/24 00:17:03;;;;;;;22.50;18.50;;;12.50;99.90;;;;;;5111237;28;20219;-71
2022/10/24 00:19:31;;;;;;;21.70;19.37;;;12.50;99.90;;;;;;5110103;28;20204;-70
2022/10/24 00:21:58;;;;;;;20.70;18.40;;;12.50;99.90;;;;;;5110392;28;20219;-69
2022/10/24 00:24:24;;;;;;;21.33;19.03;;;12.50;99.90;;;;;;5110240;28;20219;-71
2022/10/24 00:26:52;;;;;;;23.27;18.63;;;12.50;99.90;;;;;;5110465;28;20235;-71
2022/10/24 00:29:19;;;;;;;21.80;17.97;;;12.60;99.90;;;;;;5109501;28;20200;-70
2022/10/24 00:31:46;;;;;;;24.77;19.40;;;12.60;99.90;;;;;;5115941;28;20945;-71
2022/10/24 00:34:12;;;;;;;21.03;17.43;;;12.60;99.90;;;;;;5117028;28;20200;-70
2022/10/24 00:36:40;;;;;;;23.20;17.83;;;12.60;99.90;;;;;;5115278;28;20247;-71
2022/10/24 00:39:07;;;;;;;20.17;16.70;;;12.60;99.90;;;;;;5114453;27;20676;-71
2022/10/24 00:41:37;;;;;;;22.97;15.97;;;12.50;99.90;;;;;;5114465;28;20219;-70
2022/10/24 00:44:22;;;;;;;19.70;15.93;;;12.60;99.90;;;;;;5114683;28;20207;-70
2022/10/24 00:46:55;;;;;;;20.60;16.60;;;12.60;99.90;;;;;;5113758;28;20197;-70
2022/10/24 00:49:26;;;;;;;19.53;16.13;;;12.60;99.90;;;;;;5113792;27;20586;-72
2022/10/24 00:51:58;;;;;;;19.70;17.23;;;12.60;99.90;;;;;;5116584;28;20560;-71
2022/10/24 00:54:25;;;;;;;19.57;16.00;;;12.60;99.90;;;;;;5113884;28;20203;-71
2022/10/24 00:57:00;;;;;;;16.90;15.10;;;12.60;99.90;;;;;;5117440;27;20223;-71
2022/10/24 00:59:28;;;;;;;21.63;16.43;;;12.50;99.90;;;;;;5114772;27;20200;-71
2022/10/24 01:01:55;;;;;;;19.97;16.87;;;12.60;99.90;;;;;;5115639;28;20204;-70
2022/10/24 01:04:22;;;;;;;20.23;16.83;;;12.60;99.90;;;;;;5115275;28;20211;-70
2022/10/24 01:07:01;;;;;;;19.43;16.47;;;12.50;99.90;;;;;;5115456;28;20227;-70
2022/10/24 01:09:39;;;;;;;19.80;16.30;;;12.50;99.90;;;;;;5112767;28;20203;-70
2022/10/24 01:12:18;;;;;;;20.53;16.20;;;12.60;99.90;;;;;;5109847;28;20196;-70
2022/10/24 01:14:55;;;;;;;19.93;16.57;;;12.50;99.90;;;;;;5114807;28;20207;-70
2022/10/24 01:17:29;;;;;;;19.60;16.13;;;12.50;99.90;;;;;;5114038;28;20207;-71
2022/10/24 01:20:24;;;;;;;17.73;15.83;;;12.50;99.90;;;;;;5111202;28;20195;-70
2022/10/24 01:23:06;;;;;;;21.80;16.27;;;12.50;99.90;;;;;;5111525;28;20224;-70
2022/10/24 01:25:46;;;;;;;18.30;15.17;;;12.50;99.90;;;;;;5111019;28;20207;-70
2022/10/24 01:28:15;;;;;;;17.87;15.80;;;12.50;99.90;;;;;;5105621;28;20567;-71
2022/10/24 01:30:48;;;;;;;18.37;16.17;;;12.50;99.90;;;;;;5114432;28;20207;-71
2022/10/24 01:33:20;;;;;;;21.37;15.40;;;12.50;99.90;;;;;;5114770;28;20203;-71
2022/10/24 01:35:52;;;;;;;21.20;15.57;;;12.50;99.90;;;;;;5115472;28;20563;-70
2022/10/24 01:38:25;;;;;;;18.83;15.17;;;12.40;99.90;;;;;;5114970;28;20598;-71
2022/10/24 01:40:56;;;;;;;19.17;15.67;;;12.50;99.90;;;;;;5113804;28;20207;-72
2022/10/24 01:43:26;;;;;;;17.53;15.73;;;12.50;99.90;;;;;;5111782;28;20713;-71
2022/10/24 01:45:59;;;;;;;19.77;15.30;;;12.50;99.90;;;;;;5114707;28;20210;-71
2022/10/24 01:48:28;;;;;;;18.47;15.27;;;12.50;99.90;;;;;;5115368;28;20203;-71
2022/10/24 01:50:56;;;;;;;21.10;14.90;;;12.50;99.90;;;;;;5115067;28;20215;-71
2022/10/24 01:53:27;;;;;;;18.07;15.57;;;12.50;99.90;;;;;;5113344;28;20199;-71
2022/10/24 01:55:55;;;;;;;17.10;15.27;;;12.50;99.90;;;;;;5114019;28;20464;-70
2022/10/24 01:58:21;;;;;;;17.33;15.43;;;12.50;99.90;;;;;;5110140;27;20773;-71
2022/10/24 02:00:50;;;;;;;17.47;15.63;;;12.40;99.90;;;;;;5113408;28;20254;-71
2022/10/24 02:03:23;;;;;;;17.33;15.53;;;12.40;99.90;;;;;;5110605;28;20223;-70
2022/10/24 02:05:55;;;;;;;19.83;16.30;;;12.40;99.90;;;;;;5112962;28;20253;-70
2022/10/24 02:08:28;;;;;;;19.50;15.43;;;12.30;99.90;;;;;;5114007;28;20199;-70
2022/10/24 02:10:58;;;;;;;18.13;16.23;;;12.30;99.90;;;;;;5106806;28;20208;-69
2022/10/24 02:13:28;;;;;;;17.87;15.57;;;12.20;99.90;;;;;;5112070;28;20203;-70
2022/10/24 02:15:59;;;;;;;19.23;16.27;;;12.10;99.90;;;;;;5114082;28;20207;-70
2022/10/24 02:18:28;;;;;;;19.23;15.47;;;12.10;99.90;;;;;;5111180;28;20565;-71
2022/10/24 02:21:02;;;;;;;19.97;16.60;;;12.10;99.90;;;;;;5113250;28;20583;-70
2022/10/24 02:23:36;;;;;;;20.13;15.70;;;12.10;99.90;;;;;;5113767;28;20235;-70
2022/10/24 02:26:06;;;;;;;19.10;15.17;;;12.00;99.90;;;;;;5113044;28;20195;-71
2022/10/24 02:28:38;;;;;;;18.13;16.03;;;11.90;99.90;;;;;;5111403;28;20222;-71
2022/10/24 02:31:09;;;;;;;21.47;16.77;;;11.90;99.90;;;;;;5111101;28;20208;-70
2022/10/24 02:33:40;;;;;;;19.53;15.63;;;11.90;99.90;;;;;;5113137;28;20212;-71
2022/10/24 02:36:09;;;;;;;19.57;16.07;;;11.80;99.90;;;;;;5114394;28;20219;-71
2022/10/24 02:38:38;;;;;;;20.30;16.23;;;11.80;99.90;;;;;;5112821;28;20634;-71
2022/10/24 02:41:09;;;;;;;20.23;17.00;;;11.70;99.90;;;;;;5113955;28;20204;-71
2022/10/24 02:43:38;;;;;;;19.63;16.40;;;11.70;99.90;;;;;;5112539;28;20582;-71
2022/10/24 02:46:06;;;;;;;21.00;16.20;;;11.60;99.90;;;;;;5112524;28;20212;-70
2022/10/24 02:48:36;;;;;;;19.13;16.40;;;11.60;99.90;;;;;;5112975;28;20204;-71
2022/10/24 02:51:05;;;;;;;20.93;17.50;;;11.60;99.90;;;;;;5109950;28;20479;-70
2022/10/24 02:53:36;;;;;;;20.90;17.57;;;11.50;99.90;;;;;;5110087;28;20207;-70
2022/10/24 02:56:03;;;;;;;20.60;17.20;;;11.50;99.90;;;;;;5113311;28;20670;-70
2022/10/24 02:58:30;;;;;;;21.63;17.20;;;11.50;99.90;;;;;;5111991;27;20220;-71
2022/10/24 03:00:57;;;;;;;20.43;17.27;;;11.50;99.90;;;;;;5110697;28;20211;-71
2022/10/24 03:03:23;;;;;;;19.50;15.87;;;11.40;99.90;;;;;;5111800;28;20211;-70
2022/10/24 03:05:50;;;;;;;18.77;16.10;;;11.40;99.90;;;;;;5109140;28;20235;-70
2022/10/24 03:08:18;;;;;;;20.83;17.37;;;11.30;99.90;;;;;;5110508;28;20200;-70
2022/10/24 03:10:45;;;;;;;20.73;16.83;;;11.30;99.90;;;;;;5111029;28;20211;-70
2022/10/24 03:13:12;;;;;;;20.70;17.13;;;11.30;99.90;;;;;;5110870;28;20216;-70
2022/10/24 03:15:39;;;;;;;20.30;16.80;;;11.30;99.90;;;;;;5109886;28;20281;-71
2022/10/24 03:18:05;;;;;;;23.13;16.93;;;11.20;99.90;;;;;;5111969;28;20227;-71
2022/10/24 03:20:32;;;;;;;21.60;17.37;;;11.20;99.90;;;;;;5111330;28;20232;-70
2022/10/24 03:22:59;;;;;;;20.53;17.17;;;11.30;99.90;;;;;;5112847;28;20230;-70
2022/10/24 03:25:27;;;;;;;20.20;16.67;;;11.20;99.90;;;;;;5110682;28;20458;-70
2022/10/24 03:27:54;;;;;;;19.77;16.70;;;11.20;99.90;;;;;;5110881;28;20674;-71
2022/10/24 03:30:21;;;;;;;20.07;16.73;;;11.20;99.90;;;;;;5110709;28;20204;-70
2022/10/24 03:32:48;;;;;;;25.57;17.73;;;11.20;99.90;;;;;;5110737;28;20204;-70
2022/10/24 03:35:15;;;;;;;20.50;17.03;;;11.20;99.90;;;;;;5111148;28;20207;-69
2022/10/24 03:37:42;;;;;;;18.70;16.70;;;11.20;99.90;;;;;;5112680;28;20244;-70
2022/10/24 03:40:09;;;;;;;19.70;16.63;;;11.20;99.90;;;;;;5110579;28;20204;-71
2022/10/24 03:42:38;;;;;;;17.50;15.53;;;11.10;99.90;;;;;;5109342;28;20203;-71
2022/10/24 03:45:06;;;;;;;19.43;16.53;;;11.10;99.90;;;;;;5111421;28;20204;-70
2022/10/24 03:47:32;;;;;;;17.10;15.03;;;11.20;99.90;;;;;;5109164;28;20211;-71
2022/10/24 03:49:59;;;;;;;19.57;16.43;;;11.10;99.90;;;;;;5109959;28;20203;-70
2022/10/24 03:52:26;;;;;;;19.50;16.47;;;11.10;99.90;;;;;;5110736;28;20196;-70
2022/10/24 03:54:53;;;;;;;21.60;16.20;;;11.10;99.90;;;;;;5111951;28;20608;-70
2022/10/24 03:57:21;;;;;;;19.80;16.10;;;11.10;99.90;;;;;;5110859;28;20230;-71
2022/10/24 03:59:49;;;;;;;19.10;16.47;;;11.10;99.90;;;;;;5111006;28;20207;-70
2022/10/24 04:02:16;;;;;;;19.53;16.07;;;11.10;99.90;;;;;;5108408;28;20200;-70
2022/10/24 04:04:43;;;;;;;20.47;17.40;;;11.10;99.90;;;;;;5111359;28;20250;-71
2022/10/24 04:07:09;;;;;;;19.27;17.23;;;11.10;99.90;;;;;;5111144;28;20595;-70
2022/10/24 04:09:36;;;;;;;19.40;16.63;;;11.10;99.90;;;;;;5116746;28;20200;-70
2022/10/24 04:12:12;;;;;;;18.83;16.13;;;11.00;99.90;;;;;;5117017;28;20720;-70
2022/10/24 04:14:39;;;;;;;21.87;16.27;;;11.10;99.90;;;;;;5114503;28;20234;-70
2022/10/24 04:17:07;;;;;;;20.80;16.67;;;11.10;99.90;;;;;;5113255;28;20200;-70
2022/10/24 04:19:34;;;;;;;19.60;16.73;;;11.00;99.90;;;;;;5113757;28;21010;-70
2022/10/24 04:22:01;;;;;;;17.93;15.57;;;11.10;99.90;;;;;;5115271;28;20234;-70
2022/10/24 04:24:28;;;;;;;20.10;15.97;;;11.00;99.90;;;;;;5115687;28;20475;-71
2022/10/24 04:26:55;;;;;;;19.17;16.20;;;11.10;99.90;;;;;;5113512;28;20196;-70
2022/10/24 04:29:21;;;;;;;19.73;16.30;;;11.10;99.90;;;;;;5113571;28;20195;-71
2022/10/24 04:31:48;;;;;;;21.50;16.97;;;11.10;99.90;;;;;;5113886;28;20211;-71
2022/10/24 04:34:17;;;;;;;20.37;16.43;;;11.10;99.90;;;;;;5111929;28;20215;-71
2022/10/24 04:36:43;;;;;;;18.83;15.53;;;11.10;99.90;;;;;;5109368;28;20204;-71
2022/10/24 04:39:10;;;;;;;20.40;15.47;;;11.20;99.90;;;;;;5107062;28;20714;-68
2022/10/24 04:41:37;;;;;;;22.17;16.63;;;11.10;99.90;;;;;;5107609;28;20665;-69
2022/10/24 04:44:04;;;;;;;19.80;15.67;;;11.20;99.90;;;;;;5108027;28;20204;-69
2022/10/24 04:46:31;;;;;;;21.48;18.77;;;11.20;99.90;;;;;;5107471;28;20451;-70
2022/10/24 04:48:58;;;;;;;18.23;15.80;;;11.20;99.90;;;;;;5107513;27;20675;-71
2022/10/24 04:51:26;;;;;;;18.57;15.83;;;11.20;99.90;;;;;;5107605;28;20200;-73
2022/10/24 04:53:53;;;;;;;18.43;14.93;;;11.20;99.90;;;;;;5107947;28;20226;-70
2022/10/24 04:56:20;;;;;;;17.03;15.03;;;11.10;99.90;;;;;;5104633;28;20216;-71
2022/10/24 04:58:47;;;;;;;22.40;15.77;;;11.20;99.90;;;;;;5109923;27;20231;-72
2022/10/24 05:01:14;;;;;;;17.80;14.80;;;11.20;99.90;;;;;;5103803;28;20230;-71
2022/10/24 05:03:41;;;;;;;19.17;14.97;;;11.20;99.90;;;;;;5109839;28;20200;-73
2022/10/24 05:06:08;;;;;;;19.87;15.80;;;11.20;99.90;;;;;;5106972;28;20232;-74
2022/10/24 05:08:36;;;;;;;21.33;17.13;;;11.20;99.90;;;;;;5108268;28;20204;-70
2022/10/24 05:11:03;;;;;;;42.07;23.67;;;11.20;99.90;;;;;;5107097;28;20211;-69
2022/10/24 05:13:30;;;;;;;20.17;16.50;;;11.20;99.90;;;;;;5107289;27;20672;-75
2022/10/24 05:15:56;;;;;;;19.90;16.37;;;11.20;99.90;;;;;;5108543;28;20219;-70
2022/10/24 05:18:23;;;;;;;20.27;16.60;;;11.20;99.90;;;;;;5113516;28;20619;-70
2022/10/24 05:20:50;;;;;;;22.87;17.60;;;11.20;99.90;;;;;;5112096;28;20587;-70
2022/10/24 05:23:17;;;;;;;21.10;16.63;;;11.20;99.90;;;;;;5112743;28;20236;-71
2022/10/24 05:25:45;;;;;;;20.23;16.50;;;11.20;99.90;;;;;;5112882;28;20406;-71
2022/10/24 05:28:12;;;;;;;21.67;17.17;;;11.20;99.90;;;;;;5110936;28;20677;-70
2022/10/24 05:30:38;;;;;;;21.63;17.13;;;11.20;99.90;;;;;;5113889;28;20543;-69
2022/10/24 05:33:05;;;;;;;25.27;17.27;;;11.20;99.90;;;;;;5113339;28;20200;-70
2022/10/24 05:35:32;;;;;;;23.40;16.97;;;11.30;99.90;;;;;;5112710;28;20556;-71
2022/10/24 05:37:59;;;;;;;23.70;18.13;;;11.20;99.90;;;;;;5110483;28;20203;-71
2022/10/24 05:40:26;;;;;;;21.00;16.87;;;11.20;99.90;;;;;;5108783;28;20680;-70
2022/10/24 05:42:54;;;;;;;21.50;16.60;;;11.20;99.90;;;;;;5111373;28;20759;-70
2022/10/24 05:45:21;;;;;;;21.33;16.30;;;11.20;99.90;;;;;;5107186;28;20214;-68
2022/10/24 05:47:48;;;;;;;20.73;17.20;;;11.30;99.90;;;;;;5109492;28;20251;-72
2022/10/24 05:50:15;;;;;;;21.60;16.53;;;11.30;99.90;;;;;;5105022;27;20203;-68
2022/10/24 05:52:42;;;;;;;20.30;16.53;;;11.30;99.90;;;;;;5102126;28;20212;-69
2022/10/24 05:55:10;;;;;;;17.87;15.90;;;11.30;99.90;;;;;;5110723;28;20211;-70
2022/10/24 05:57:38;;;;;;;24.77;16.70;;;11.30;99.90;;;;;;5112602;28;20215;-70
2022/10/24 06:00:08;;;;;;;20.00;16.47;;;11.30;99.90;;;;;;5112914;28;20244;-70
2022/10/24 06:02:35;;;;;;;22.33;16.43;;;11.40;99.90;;;;;;5113699;28;20204;-70
2022/10/24 06:05:02;;;;;;;21.03;16.13;;;11.40;99.90;;;;;;5112473;28;20551;-70
2022/10/24 06:07:30;;;;;;;19.57;15.47;;;11.40;99.90;;;;;;5112811;28;20207;-70
2022/10/24 06:09:57;;;;;;;20.10;16.57;;;11.50;99.90;;;;;;5113587;28;20196;-71
2022/10/24 06:12:24;;;;;;;21.87;17.07;;;11.50;99.90;;;;;;5110638;28;20200;-71
2022/10/24 06:14:55;;;;;;;19.63;15.83;;;11.50;99.90;;;;;;5113900;28;20305;-71
2022/10/24 06:17:23;;;;;;;18.57;15.00;;;11.60;99.90;;;;;;5111483;28;20204;-70
2022/10/24 06:19:50;;;;;;;19.73;16.07;;;11.70;99.90;;;;;;5112993;28;20231;-70
2022/10/24 06:22:18;;;;;;;20.63;16.23;;;11.50;99.90;;;;;;5113058;28;20227;-71
2022/10/24 06:24:44;;;;;;;20.97;15.47;;;11.70;99.90;;;;;;5113813;28;20211;-71
2022/10/24 06:27:11;;;;;;;20.87;15.90;;;11.70;99.90;;;;;;5111081;28;20303;-70
2022/10/24 06:29:38;;;;;;;21.80;16.13;;;11.70;99.90;;;;;;5111988;28;20660;-71
2022/10/24 06:32:05;;;;;;;21.70;15.37;;;11.80;99.90;;;;;;5111313;28;20204;-71
2022/10/24 06:34:34;;;;;;;19.00;15.07;;;11.80;99.90;;;;;;5108855;28;20215;-70
2022/10/24 06:37:01;;;;;;;19.37;15.47;;;11.90;99.90;;;;;;5112436;28;20230;-71
2022/10/24 06:39:28;;;;;;;18.53;15.57;;;11.90;99.90;;;;;;5114330;28;20227;-72
2022/10/24 06:41:55;;;;;;;17.23;15.10;;;11.90;99.90;;;;;;5113093;28;20218;-71
2022/10/24 06:44:22;;;;;;;19.23;15.00;;;11.90;99.90;;;;;;5113886;28;20211;-72
2022/10/24 06:46:48;;;;;;;19.77;15.13;;;11.90;99.90;;;;;;5109075;28;20207;-71
2022/10/24 06:49:16;;;;;;;18.37;14.77;;;11.90;99.90;;;;;;5112230;28;20199;-69
2022/10/24 06:51:44;;;;;;;19.63;14.77;;;11.80;99.90;;;;;;5111249;28;20675;-71
2022/10/24 06:54:11;;;;;;;20.63;15.90;;;11.90;99.90;;;;;;5112437;28;20207;-71
2022/10/24 06:56:37;;;;;;;19.67;15.37;;;11.90;99.90;;;;;;5111964;28;20215;-71
2022/10/24 06:59:09;;;;;;;19.77;15.47;;;11.90;99.90;;;;;;5112461;28;20266;-70
2022/10/24 07:01:35;;;;;;;16.63;14.83;;;11.90;99.90;;;;;;5112552;28;20219;-71
2022/10/24 07:04:04;;;;;;;18.70;15.20;;;11.90;99.90;;;;;;5111100;28;20261;-71
2022/10/24 07:06:30;;;;;;;19.70;14.80;;;11.90;99.90;;;;;;5089929;28;20244;-72
2022/10/24 07:09:00;;;;;;;17.17;13.70;;;12.00;99.90;;;;;;5080785;28;20209;-72
2022/10/24 07:11:28;;;;;;;19.03;14.17;;;12.00;99.90;;;;;;5080103;28;20209;-72
2022/10/24 07:13:55;;;;;;;17.23;14.23;;;12.00;99.90;;;;;;5084689;28;20649;-72
2022/10/24 07:16:22;;;;;;;19.80;14.33;;;12.00;99.90;;;;;;5086406;28;20669;-71
2022/10/24 07:18:49;;;;;;;18.73;14.23;;;12.10;99.90;;;;;;5083491;28;20225;-72
2022/10/24 07:21:19;;;;;;;18.07;13.83;;;12.10;99.90;;;;;;5091241;28;20216;-72
2022/10/24 07:23:47;;;;;;;18.80;14.33;;;12.10;99.90;;;;;;5091912;28;20235;-72
2022/10/24 07:26:16;;;;;;;18.20;13.40;;;12.10;99.90;;;;;;5089125;28;20234;-72
2022/10/24 07:28:45;;;;;;;19.13;13.57;;;12.10;99.90;;;;;;5091176;28;20217;-74
2022/10/24 07:31:13;;;;;;;19.53;13.83;;;12.10;99.90;;;;;;5089768;28;20208;-74
2022/10/24 07:33:41;;;;;;;17.03;13.70;;;12.10;99.90;;;;;;5088387;28;20208;-71
2022/10/24 07:36:08;;;;;;;15.50;12.73;;;12.10;99.90;;;;;;5089952;28;20215;-72
2022/10/24 07:38:36;;;;;;;16.93;13.80;;;12.10;99.90;;;;;;5090009;28;20670;-72
2022/10/24 07:41:04;;;;;;;19.47;14.13;;;12.10;99.90;;;;;;5087253;28;20592;-72
2022/10/24 07:43:32;;;;;;;18.63;13.93;;;12.10;99.90;;;;;;5084635;28;20211;-72
2022/10/24 07:45:59;;;;;;;21.90;15.37;;;12.10;99.90;;;;;;5089937;28;20209;-72
2022/10/24 07:48:26;;;;;;;17.80;14.30;;;12.10;99.90;;;;;;5088941;28;20212;-73
2022/10/24 07:50:53;;;;;;;18.93;15.57;;;12.10;99.90;;;;;;5091215;28;20641;-72
2022/10/24 07:53:20;;;;;;;18.37;14.87;;;12.00;99.90;;;;;;5086237;28;20230;-72
2022/10/24 07:55:47;;;;;;;18.67;14.67;;;12.10;99.90;;;;;;5090832;28;20207;-71
2022/10/24 07:58:14;;;;;;;16.67;14.27;;;12.10;99.90;;;;;;5089138;28;20216;-72
2022/10/24 08:00:42;;;;;;;17.73;14.87;;;12.20;99.90;;;;;;5089906;28;20246;-72
2022/10/24 08:03:09;;;;;;;18.37;13.37;;;12.40;99.90;;;;;;5087730;28;20204;-72
2022/10/24 08:05:38;;;;;;;16.53;13.40;;;12.40;99.90;;;;;;5096890;28;20239;-71
2022/10/24 08:08:05;;;;;;;15.33;12.60;;;12.50;99.90;;;;;;5108637;28;20211;-72
2022/10/24 08:10:32;;;;;;;18.83;12.90;;;12.60;99.90;;;;;;5110235;28;20207;-71
2022/10/24 08:12:59;;;;;;;17.83;13.73;;;12.60;99.90;;;;;;5111020;28;20574;-73
2022/10/24 08:15:26;;;;;;;19.80;13.70;;;12.70;99.90;;;;;;5110274;28;20587;-72
2022/10/24 08:17:55;;;;;;;16.73;13.40;;;12.70;99.90;;;;;;5109538;28;20235;-72
2022/10/24 08:20:23;;;;;;;15.67;13.93;;;12.90;99.90;;;;;;5110993;28;20216;-71
2022/10/24 08:22:49;;;;;;;17.57;13.73;;;12.90;99.90;;;;;;5108140;28;20230;-72
2022/10/24 08:25:16;;;;;;;17.30;14.10;;;13.00;99.90;;;;;;5106610;28;20216;-72
2022/10/24 08:27:43;;;;;;;17.47;13.33;;;13.10;99.90;;;;;;5109206;28;20208;-72
2022/10/24 08:30:11;;;;;;;16.67;13.83;;;13.10;99.90;;;;;;5109448;28;20196;-73
2022/10/24 08:32:38;;;;;;;20.17;15.57;;;13.20;99.90;;;;;;5107868;28;20219;-72
2022/10/24 08:35:07;;;;;;;18.00;13.93;;;13.20;99.90;;;;;;5111149;28;20269;-72
2022/10/24 08:37:36;;;;;;;15.87;12.83;;;13.20;99.90;;;;;;5110739;28;20222;-73
2022/10/24 08:40:06;;;;;;;15.00;13.27;;;13.20;99.90;;;;;;5109576;28;20249;-72
2022/10/24 08:42:33;;;;;;;15.57;11.63;;;13.20;99.90;;;;;;5109493;28;20204;-72
2022/10/24 08:45:01;;;;;;;15.77;12.83;;;13.20;99.90;;;;;;5106683;28;20617;-72
2022/10/24 08:47:34;;;;;;;16.33;13.43;;;13.30;99.90;;;;;;5107228;28;20208;-72
2022/10/24 08:50:05;;;;;;;14.17;12.67;;;13.20;99.90;;;;;;5110005;28;20191;-73
2022/10/24 08:52:40;;;;;;;15.47;12.70;;;13.20;99.90;;;;;;5114294;28;20647;-72
2022/10/24 08:55:14;;;;;;;13.43;11.83;;;13.30;99.90;;;;;;5112420;28;20208;-73
2022/10/24 08:57:45;;;;;;;14.03;12.37;;;13.40;99.90;;;;;;5114833;28;20195;-73
2022/10/24 09:00:18;;;;;;;16.67;12.43;;;13.50;99.90;;;;;;5112954;28;20208;-72
2022/10/24 09:02:51;;;;;;;18.27;13.63;;;13.80;99.90;;;;;;5110868;28;20200;-72
2022/10/24 09:05:23;;;;;;;15.73;12.33;;;14.30;99.90;;;;;;5111615;28;20707;-71
2022/10/24 09:07:56;;;;;;;13.13;11.73;;;14.80;99.90;;;;;;5109162;28;20218;-71
2022/10/24 09:10:32;;;;;;;17.30;12.77;;;15.10;99.90;;;;;;5110486;28;20231;-72
2022/10/24 09:12:59;;;;;;;18.97;12.13;;;15.20;99.90;;;;;;5111515;28;20587;-73
2022/10/24 09:15:30;;;;;;;12.90;10.60;;;15.50;99.90;;;;;;5113245;28;20667;-72
2022/10/24 09:17:58;;;;;;;14.03;10.80;;;16.00;99.90;;;;;;5113998;28;20203;-73
2022/10/24 09:20:27;;;;;;;15.40;11.63;;;16.30;99.90;;;;;;5108139;28;20608;-72
2022/10/24 09:22:58;;;;;;;18.97;11.33;;;16.30;99.90;;;;;;5108079;28;20284;-71
2022/10/24 09:25:28;;;;;;;15.27;11.17;;;16.50;99.90;;;;;;5108845;28;20202;-72
2022/10/24 09:27:56;;;;;;;15.10;11.90;;;16.60;99.90;;;;;;5112991;28;20263;-71
2022/10/24 09:30:25;;;;;;;13.82;11.05;;;17.10;99.90;;;;;;5112823;28;20280;-72
2022/10/24 09:32:54;;;;;;;14.02;11.20;;;17.80;99.90;;;;;;5112733;28;20294;-72
2022/10/24 09:35:24;;;;;;;18.02;10.55;;;18.50;99.90;;;;;;5110839;28;20553;-72
2022/10/24 09:37:54;;;;;;;11.98;10.15;;;18.90;99.90;;;;;;5111568;28;20207;-72
2022/10/24 09:40:24;;;;;;;11.50;10.30;;;18.80;99.90;;;;;;5111955;28;20226;-72
2022/10/24 09:42:55;;;;;;;14.80;10.85;;;18.40;99.90;;;;;;5108470;28;20277;-72
2022/10/24 09:45:33;;;;;;;12.95;10.25;;;17.90;99.90;;;;;;5106563;28;20203;-73
2022/10/24 09:48:03;;;;;;;14.25;10.98;;;17.50;99.90;;;;;;5109020;28;20192;-72
2022/10/24 09:50:33;;;;;;;12.32;10.55;;;17.20;99.90;;;;;;5112721;28;20552;-73
2022/10/24 09:53:02;;;;;;;16.58;10.40;;;16.90;99.90;;;;;;5112374;28;20207;-73
2022/10/24 09:55:30;;;;;;;15.48;11.57;;;16.80;99.90;;;;;;5111485;28;20211;-72
2022/10/24 09:58:04;;;;;;;12.82;10.90;;;16.50;99.90;;;;;;5113106;28;20324;-72
2022/10/24 10:00:33;;;;;;;15.18;11.30;;;16.50;99.90;;;;;;5108884;28;20226;-73
2022/10/24 10:03:05;;;;;;;13.95;11.27;;;16.40;99.90;;;;;;5109513;28;20204;-72
2022/10/24 10:05:44;;;;;;;13.88;11.35;;;16.50;99.90;;;;;;5112253;28;20231;-71
2022/10/24 10:08:16;;;;;;;14.07;10.85;;;16.50;99.90;;;;;;5113416;28;20558;-72
2022/10/24 10:10:59;;;;;;;14.50;10.70;;;16.80;99.90;;;;;;5113088;28;20203;-72
2022/10/24 10:13:27;;;;;;;13.82;11.10;;;17.00;99.90;;;;;;5110894;28;20620;-72
2022/10/24 10:15:56;;;;;;;11.85;10.57;;;17.10;99.90;;;;;;5111527;28;20250;-72
2022/10/24 10:18:27;;;;;;;12.60;10.82;;;17.20;99.90;;;;;;5112446;28;20207;-72
2022/10/24 10:21:00;;;;;;;15.30;10.90;;;17.20;99.90;;;;;;5111450;28;20242;-73
2022/10/24 10:23:31;;;;;;;12.27;10.27;;;17.30;99.90;;;;;;5108693;28;20212;-72
2022/10/24 10:26:14;;;;;;;14.40;10.52;;;17.30;99.90;;;;;;5110947;28;20276;-73
2022/10/24 10:28:47;;;;;;;14.02;10.32;;;17.50;99.90;;;;;;5112169;28;20667;-72
2022/10/24 10:31:22;;;;;;;12.82;10.32;;;17.60;99.90;;;;;;5111819;28;20266;-72
2022/10/24 10:34:03;;;;;;;12.32;10.45;;;18.30;99.90;;;;;;5109741;28;20266;-73
2022/10/24 10:36:34;;;;;;;12.40;9.77;;;19.00;99.90;;;;;;5111306;28;20200;-72
2022/10/24 10:39:19;;;;;;;11.98;9.25;;;19.80;99.90;;;;;;5111069;28;20188;-73
2022/10/24 10:41:51;;;;;;;12.52;9.82;;;20.80;99.90;;;;;;5112219;28;20210;-73
2022/10/24 10:44:33;;;;;;;10.25;9.13;;;22.00;99.90;;;;;;5105049;28;20971;-72
2022/10/24 10:47:11;;;;;;;11.35;9.10;;;23.20;99.90;;;;;;5111010;28;20569;-72
2022/10/24 10:49:40;;;;;;;10.13;8.48;;;24.00;99.90;;;;;;5111290;28;20200;-73
2022/10/24 10:52:11;;;;;;;11.55;8.88;;;24.50;99.90;;;;;;5111739;28;20663;-73
2022/10/24 10:55:00;;;;;;;13.60;9.10;;;24.90;99.90;;;;;;5113080;28;20204;-73
2022/10/24 10:57:37;;;;;;;16.80;9.05;;;25.20;97.90;;;;;;5110018;28;20203;-72
2022/10/24 11:00:10;;;;;;;10.45;9.32;;;24.60;96.00;;;;;;5108064;28;20211;-72
2022/10/24 11:02:53;;;;;;;12.23;9.32;;;24.20;96.70;;;;;;5111031;27;20573;-72
2022/10/24 11:05:31;;;;;;;15.07;9.27;;;23.70;96.40;;;;;;5111092;28;20235;-72
2022/10/24 11:08:07;;;;;;;12.93;9.55;;;22.90;96.90;;;;;;5110937;28;20827;-73
2022/10/24 11:10:39;;;;;;;13.90;10.32;;;22.20;98.40;;;;;;5108288;28;20203;-72
2022/10/24 11:13:15;;;;;;;11.50;8.70;;;21.80;99.90;;;;;;5108621;28;20202;-72
2022/10/24 11:15:47;;;;;;;11.50;9.13;;;21.40;99.90;;;;;;5105004;28;20192;-72
2022/10/24 11:18:19;;;;;;;12.55;9.18;;;21.10;99.90;;;;;;5107784;28;20212;-72
2022/10/24 11:20:51;;;;;;;11.60;9.07;;;20.90;99.90;;;;;;5106871;28;20211;-72
2022/10/24 11:23:24;;;;;;;12.23;9.52;;;20.70;99.90;;;;;;5106652;28;20274;-73
2022/10/24 11:25:56;;;;;;;11.77;9.75;;;20.50;99.90;;;;;;5110084;28;20575;-73
2022/10/24 11:28:29;;;;;;;11.65;9.45;;;20.40;99.90;;;;;;5107601;28;20193;-72
2022/10/24 11:31:00;;;;;;;14.48;8.85;;;20.20;99.90;;;;;;5111451;28;20226;-73
2022/10/24 11:33:32;;;;;;;12.30;8.95;;;20.10;99.90;;;;;;5109494;28;20614;-73
2022/10/24 11:36:14;;;;;;;11.98;9.55;;;20.10;99.90;;;;;;5109823;28;20648;-73
2022/10/24 11:38:48;;;;;;;14.00;9.32;;;20.30;99.90;;;;;;5110724;28;20227;-72
2022/10/24 11:41:41;;;;;;;12.10;9.32;;;20.60;99.90;;;;;;5111750;28;20210;-73
2022/10/24 11:44:25;;;;;;;12.07;9.35;;;20.70;99.90;;;;;;5106734;28;20200;-73
2022/10/24 11:47:00;;;;;;;13.95;8.98;;;20.60;99.90;;;;;;5111609;28;20230;-73
2022/10/24 11:49:31;;;;;;;12.48;8.57;;;20.60;99.90;;;;;;5110324;28;20199;-72
2022/10/24 11:52:04;;;;;;;12.15;8.75;;;20.80;99.90;;;;;;5108873;28;20656;-72
2022/10/24 11:54:34;;;;;;;9.63;8.07;;;21.10;99.90;;;;;;5103245;28;20688;-72
2022/10/24 11:57:04;;;;;;;11.13;8.45;;;21.60;99.90;;;;;;5108135;28;20196;-73
2022/10/24 11:59:32;;;;;;;10.93;8.35;;;21.90;99.90;;;;;;5107524;28;20220;-72
2022/10/24 12:02:32;;;;;;;10.13;7.90;;;22.60;99.90;;;;;;5107484;28;20224;-73
2022/10/24 12:05:23;;;;;;;12.77;6.03;;;24.30;99.90;;;;;;5106930;28;20203;-72
2022/10/24 12:08:11;;;;;;;9.00;6.00;;;25.50;98.90;;;;;;5106344;28;20207;-73
2022/10/24 12:10:55;;;;;;;9.93;6.63;;;25.40;96.70;;;;;;5107023;28;20575;-73
2022/10/24 12:13:44;;;;;;;7.78;6.57;;;25.00;96.20;;;;;;5106973;28;20213;-72
2022/10/24 12:16:20;;;;;;;6.95;6.25;;;24.30;96.70;;;;;;5107983;28;20895;-73
2022/10/24 12:18:49;;;;;;;11.73;6.82;;;23.70;97.30;;;;;;5108948;28;20215;-73
2022/10/24 12:21:19;;;;;;;9.93;6.40;;;23.20;98.40;;;;;;5109245;28;20216;-72
2022/10/24 12:23:55;;;;;;;8.95;5.55;;;22.70;99.40;;;;;;5110432;28;20223;-73
2022/10/24 12:26:27;;;;;;;9.35;5.95;;;22.30;99.90;;;;;;5111861;28;20202;-73
2022/10/24 12:28:55;;;;;;;7.85;6.43;;;22.00;99.90;;;;;;5114470;28;20207;-74
2022/10/24 12:31:28;;;;;;;8.88;5.70;;;21.80;99.90;;;;;;5111883;27;20196;-74
2022/10/24 12:34:28;;;;;;;9.90;5.75;;;22.20;99.90;;;;;;5113449;28;20663;-73
2022/10/24 12:37:10;;;;;;;8.43;5.28;;;23.60;99.90;;;;;;5095409;28;20211;-75
2022/10/24 12:39:39;;;;;;;6.50;4.68;;;25.30;98.30;;;;;;5114650;28;20199;-72
2022/10/24 12:42:15;;;;;;;7.88;4.82;;;25.90;94.00;;;;;;5110933;28;20605;-74
2022/10/24 12:44:44;;;;;;;6.10;4.70;;;25.60;92.80;;;;;;5117849;28;20226;-72